sensor_id;sensor_type;location;lat;lon;timestamp;P1;durP1;ratioP1;P2;durP2;ratioP2
29432;SDS011;16405;53.964;13.448;2022-10-17T00:00:54;7.65;;;4.05;;
29432;SDS011;16405;53.964;13.448;2022-10-17T00:03:20;11.52;;;4.47;;
29432;SDS011;16405;53.964;13.448;2022-10-17T00:05:46;8.30;;;4.10;;
29432;SDS011;16405;53.964;13.448;2022-10-17T00:08:18;5.78;;;3.95;;
29432;SDS011;16405;53.964;13.448;2022-10-17T00:10:44;3.35;;;2.60;;
29432;SDS011;16405;53.964;13.448;2022-10-17T00:13:20;9.25;;;3.50;;
29432;SDS011;16405;53.964;13.448;2022-10-17T00:15:46;7.75;;;2.75;;
29432;SDS011;16405;53.964;13.448;2022-10-17T00:18:12;6.55;;;2.95;;
29432;SDS011;16405;53.964;13.448;2022-10-17T00:20:38;6.75;;;2.90;;
29432;SDS011;16405;53.964;13.448;2022-10-17T00:23:04;9.75;;;2.70;;
29432;SDS011;16405;53.964;13.448;2022-10-17T00:25:32;4.45;;;2.80;;
29432;SDS011;16405;53.964;13.448;2022-10-17T00:28:01;8.57;;;4.05;;
29432;SDS011;16405;53.964;13.448;2022-10-17T00:30:27;7.40;;;3.38;;
29432;SDS011;16405;53.964;13.448;2022-10-17T00:32:53;5.70;;;3.78;;
29432;SDS011;16405;53.964;13.448;2022-10-17T00:35:19;8.23;;;3.03;;
29432;SDS011;16405;53.964;13.448;2022-10-17T00:37:45;4.68;;;2.42;;
29432;SDS011;16405;53.964;13.448;2022-10-17T00:40:18;17.05;;;5.07;;
29432;SDS011;16405;53.964;13.448;2022-10-17T00:42:44;12.93;;;4.38;;
29432;SDS011;16405;53.964;13.448;2022-10-17T00:45:25;4.88;;;3.20;;
29432;SDS011;16405;53.964;13.448;2022-10-17T00:48:02;9.30;;;4.03;;
29432;SDS011;16405;53.964;13.448;2022-10-17T00:50:33;11.25;;;5.47;;
29432;SDS011;16405;53.964;13.448;2022-10-17T00:53:07;11.07;;;5.05;;
29432;SDS011;16405;53.964;13.448;2022-10-17T00:55:36;12.80;;;5.85;;
29432;SDS011;16405;53.964;13.448;2022-10-17T00:58:14;11.10;;;7.07;;
29432;SDS011;16405;53.964;13.448;2022-10-17T01:00:41;10.02;;;6.30;;
29432;SDS011;16405;53.964;13.448;2022-10-17T01:03:11;9.00;;;4.50;;
29432;SDS011;16405;53.964;13.448;2022-10-17T01:05:37;6.50;;;4.20;;
29432;SDS011;16405;53.964;13.448;2022-10-17T01:08:05;6.15;;;3.17;;
29432;SDS011;16405;53.964;13.448;2022-10-17T01:10:34;6.22;;;3.70;;
29432;SDS011;16405;53.964;13.448;2022-10-17T01:13:12;6.97;;;3.70;;
29432;SDS011;16405;53.964;13.448;2022-10-17T01:34:02;15.77;;;4.85;;
29432;SDS011;16405;53.964;13.448;2022-10-17T01:37:07;10.35;;;4.97;;
29432;SDS011;16405;53.964;13.448;2022-10-17T01:45:48;19.23;;;6.32;;
29432;SDS011;16405;53.964;13.448;2022-10-17T01:48:30;10.05;;;6.85;;
29432;SDS011;16405;53.964;13.448;2022-10-17T01:53:59;12.27;;;6.22;;
29432;SDS011;16405;53.964;13.448;2022-10-17T01:56:50;9.80;;;5.03;;
29432;SDS011;16405;53.964;13.448;2022-10-17T01:59:24;11.40;;;4.95;;
29432;SDS011;16405;53.964;13.448;2022-10-17T02:01:58;9.23;;;5.80;;
29432;SDS011;16405;53.964;13.448;2022-10-17T02:04:25;12.23;;;5.22;;
29432;SDS011;16405;53.964;13.448;2022-10-17T02:07:12;10.52;;;4.70;;
29432;SDS011;16405;53.964;13.448;2022-10-17T02:09:38;9.60;;;4.10;;
29432;SDS011;16405;53.964;13.448;2022-10-17T02:12:24;8.98;;;4.35;;
29432;SDS011;16405;53.964;13.448;2022-10-17T02:23:16;7.53;;;3.72;;
29432;SDS011;16405;53.964;13.448;2022-10-17T02:26:06;9.82;;;3.55;;
29432;SDS011;16405;53.964;13.448;2022-10-17T02:29:12;7.53;;;3.85;;
29432;SDS011;16405;53.964;13.448;2022-10-17T02:31:50;8.40;;;3.22;;
29432;SDS011;16405;53.964;13.448;2022-10-17T02:34:34;11.40;;;3.78;;
29432;SDS011;16405;53.964;13.448;2022-10-17T02:37:10;5.90;;;3.72;;
29432;SDS011;16405;53.964;13.448;2022-10-17T02:39:39;13.80;;;3.83;;
29432;SDS011;16405;53.964;13.448;2022-10-17T02:42:14;11.73;;;4.07;;
29432;SDS011;16405;53.964;13.448;2022-10-17T02:44:42;5.40;;;3.63;;
29432;SDS011;16405;53.964;13.448;2022-10-17T02:48:11;6.63;;;3.67;;
29432;SDS011;16405;53.964;13.448;2022-10-17T02:50:26;5.38;;;3.50;;
29432;SDS011;16405;53.964;13.448;2022-10-17T02:53:16;5.45;;;3.08;;
29432;SDS011;16405;53.964;13.448;2022-10-17T02:55:56;4.43;;;2.42;;
29432;SDS011;16405;53.964;13.448;2022-10-17T02:58:32;9.25;;;3.33;;
29432;SDS011;16405;53.964;13.448;2022-10-17T03:01:00;8.18;;;3.13;;
29432;SDS011;16405;53.964;13.448;2022-10-17T03:03:28;8.82;;;3.25;;
29432;SDS011;16405;53.964;13.448;2022-10-17T03:05:58;3.08;;;2.72;;
29432;SDS011;16405;53.964;13.448;2022-10-17T03:08:24;6.68;;;3.00;;
29432;SDS011;16405;53.964;13.448;2022-10-17T03:10:50;10.05;;;2.95;;
29432;SDS011;16405;53.964;13.448;2022-10-17T03:13:16;8.30;;;3.35;;
29432;SDS011;16405;53.964;13.448;2022-10-17T03:15:46;7.30;;;3.65;;
29432;SDS011;16405;53.964;13.448;2022-10-17T03:18:14;5.00;;;2.78;;
29432;SDS011;16405;53.964;13.448;2022-10-17T03:20:40;3.28;;;2.42;;
29432;SDS011;16405;53.964;13.448;2022-10-17T03:23:06;9.00;;;3.88;;
29432;SDS011;16405;53.964;13.448;2022-10-17T03:25:32;5.47;;;3.30;;
29432;SDS011;16405;53.964;13.448;2022-10-17T03:27:58;13.07;;;3.40;;
29432;SDS011;16405;53.964;13.448;2022-10-17T03:30:31;6.68;;;3.40;;
29432;SDS011;16405;53.964;13.448;2022-10-17T03:32:57;6.75;;;3.25;;
29432;SDS011;16405;53.964;13.448;2022-10-17T03:35:24;6.68;;;3.72;;
29432;SDS011;16405;53.964;13.448;2022-10-17T03:37:58;8.90;;;3.55;;
29432;SDS011;16405;53.964;13.448;2022-10-17T03:40:24;8.82;;;3.25;;
29432;SDS011;16405;53.964;13.448;2022-10-17T03:42:50;9.40;;;3.80;;
29432;SDS011;16405;53.964;13.448;2022-10-17T03:45:15;9.73;;;4.35;;
29432;SDS011;16405;53.964;13.448;2022-10-17T03:47:41;8.43;;;4.45;;
29432;SDS011;16405;53.964;13.448;2022-10-17T03:50:07;11.57;;;5.00;;
29432;SDS011;16405;53.964;13.448;2022-10-17T03:52:38;11.02;;;5.28;;
29432;SDS011;16405;53.964;13.448;2022-10-17T03:55:04;8.98;;;5.25;;
29432;SDS011;16405;53.964;13.448;2022-10-17T03:57:30;12.50;;;5.45;;
29432;SDS011;16405;53.964;13.448;2022-10-17T04:00:02;8.02;;;4.70;;
29432;SDS011;16405;53.964;13.448;2022-10-17T04:02:29;7.90;;;5.05;;
29432;SDS011;16405;53.964;13.448;2022-10-17T04:04:55;11.50;;;5.47;;
29432;SDS011;16405;53.964;13.448;2022-10-17T04:07:21;7.70;;;5.22;;
29432;SDS011;16405;53.964;13.448;2022-10-17T04:09:46;6.82;;;4.95;;
29432;SDS011;16405;53.964;13.448;2022-10-17T04:12:12;6.82;;;4.88;;
29432;SDS011;16405;53.964;13.448;2022-10-17T04:14:38;6.90;;;5.57;;
29432;SDS011;16405;53.964;13.448;2022-10-17T04:17:09;7.63;;;5.05;;
29432;SDS011;16405;53.964;13.448;2022-10-17T04:19:35;6.20;;;4.30;;
29432;SDS011;16405;53.964;13.448;2022-10-17T04:22:01;8.32;;;4.72;;
29432;SDS011;16405;53.964;13.448;2022-10-17T04:24:28;10.10;;;4.45;;
29432;SDS011;16405;53.964;13.448;2022-10-17T04:26:53;10.27;;;4.85;;
29432;SDS011;16405;53.964;13.448;2022-10-17T04:29:22;6.53;;;4.30;;
29432;SDS011;16405;53.964;13.448;2022-10-17T04:31:50;20.67;;;5.22;;
29432;SDS011;16405;53.964;13.448;2022-10-17T04:34:16;7.32;;;4.20;;
29432;SDS011;16405;53.964;13.448;2022-10-17T04:36:43;10.77;;;4.50;;
29432;SDS011;16405;53.964;13.448;2022-10-17T04:39:09;8.02;;;4.47;;
29432;SDS011;16405;53.964;13.448;2022-10-17T04:41:35;10.68;;;4.97;;
29432;SDS011;16405;53.964;13.448;2022-10-17T04:44:05;11.95;;;5.25;;
29432;SDS011;16405;53.964;13.448;2022-10-17T04:46:32;11.43;;;5.50;;
29432;SDS011;16405;53.964;13.448;2022-10-17T04:48:58;17.15;;;5.15;;
29432;SDS011;16405;53.964;13.448;2022-10-17T04:51:24;16.45;;;6.85;;
29432;SDS011;16405;53.964;13.448;2022-10-17T04:53:50;15.13;;;6.50;;
29432;SDS011;16405;53.964;13.448;2022-10-17T04:56:16;11.98;;;6.18;;
29432;SDS011;16405;53.964;13.448;2022-10-17T04:58:48;17.92;;;6.47;;
29432;SDS011;16405;53.964;13.448;2022-10-17T05:01:16;19.20;;;6.85;;
29432;SDS011;16405;53.964;13.448;2022-10-17T05:03:44;19.88;;;7.55;;
29432;SDS011;16405;53.964;13.448;2022-10-17T05:06:19;20.23;;;7.60;;
29432;SDS011;16405;53.964;13.448;2022-10-17T05:08:51;13.02;;;6.53;;
29432;SDS011;16405;53.964;13.448;2022-10-17T05:11:18;16.60;;;6.32;;
29432;SDS011;16405;53.964;13.448;2022-10-17T05:13:51;11.27;;;5.88;;
29432;SDS011;16405;53.964;13.448;2022-10-17T05:16:26;14.97;;;5.80;;
29432;SDS011;16405;53.964;13.448;2022-10-17T05:18:54;12.85;;;6.05;;
29432;SDS011;16405;53.964;13.448;2022-10-17T05:21:22;9.98;;;4.80;;
29432;SDS011;16405;53.964;13.448;2022-10-17T05:23:52;12.70;;;5.03;;
29432;SDS011;16405;53.964;13.448;2022-10-17T05:26:19;8.98;;;4.47;;
29432;SDS011;16405;53.964;13.448;2022-10-17T05:28:45;14.45;;;6.05;;
29432;SDS011;16405;53.964;13.448;2022-10-17T05:31:12;12.57;;;7.00;;
29432;SDS011;16405;53.964;13.448;2022-10-17T05:33:40;15.63;;;8.65;;
29432;SDS011;16405;53.964;13.448;2022-10-17T05:36:07;13.95;;;6.32;;
29432;SDS011;16405;53.964;13.448;2022-10-17T05:38:33;11.40;;;4.68;;
29432;SDS011;16405;53.964;13.448;2022-10-17T05:41:02;9.50;;;3.95;;
29432;SDS011;16405;53.964;13.448;2022-10-17T05:43:33;8.80;;;4.53;;
29432;SDS011;16405;53.964;13.448;2022-10-17T05:46:02;8.13;;;3.53;;
29432;SDS011;16405;53.964;13.448;2022-10-17T05:48:29;9.10;;;3.05;;
29432;SDS011;16405;53.964;13.448;2022-10-17T05:50:59;9.20;;;2.67;;
29432;SDS011;16405;53.964;13.448;2022-10-17T05:53:31;5.93;;;2.33;;
29432;SDS011;16405;53.964;13.448;2022-10-17T05:56:03;6.72;;;2.20;;
29432;SDS011;16405;53.964;13.448;2022-10-17T05:58:33;6.25;;;1.83;;
29432;SDS011;16405;53.964;13.448;2022-10-17T06:00:59;6.00;;;2.55;;
29432;SDS011;16405;53.964;13.448;2022-10-17T06:03:37;4.70;;;1.90;;
29432;SDS011;16405;53.964;13.448;2022-10-17T06:06:03;5.88;;;2.10;;
29432;SDS011;16405;53.964;13.448;2022-10-17T06:08:40;5.82;;;2.15;;
29432;SDS011;16405;53.964;13.448;2022-10-17T06:11:05;6.47;;;1.98;;
29432;SDS011;16405;53.964;13.448;2022-10-17T06:13:31;4.72;;;1.65;;
29432;SDS011;16405;53.964;13.448;2022-10-17T06:15:57;3.53;;;1.45;;
29432;SDS011;16405;53.964;13.448;2022-10-17T06:18:23;5.07;;;1.50;;
29432;SDS011;16405;53.964;13.448;2022-10-17T06:20:51;6.43;;;1.60;;
29432;SDS011;16405;53.964;13.448;2022-10-17T06:23:17;3.92;;;3.08;;
29432;SDS011;16405;53.964;13.448;2022-10-17T06:25:43;9.52;;;1.92;;
29432;SDS011;16405;53.964;13.448;2022-10-17T06:28:09;5.22;;;1.75;;
29432;SDS011;16405;53.964;13.448;2022-10-17T06:30:39;5.55;;;1.75;;
29432;SDS011;16405;53.964;13.448;2022-10-17T06:33:07;5.00;;;2.22;;
29432;SDS011;16405;53.964;13.448;2022-10-17T06:35:33;7.88;;;2.00;;
29432;SDS011;16405;53.964;13.448;2022-10-17T06:37:58;6.07;;;1.70;;
29432;SDS011;16405;53.964;13.448;2022-10-17T06:40:24;4.75;;;2.08;;
29432;SDS011;16405;53.964;13.448;2022-10-17T06:42:50;4.43;;;2.22;;
29432;SDS011;16405;53.964;13.448;2022-10-17T06:45:16;4.70;;;2.22;;
29432;SDS011;16405;53.964;13.448;2022-10-17T06:47:41;6.70;;;2.38;;
29432;SDS011;16405;53.964;13.448;2022-10-17T06:50:07;7.93;;;2.20;;
29432;SDS011;16405;53.964;13.448;2022-10-17T06:52:35;4.65;;;2.15;;
29432;SDS011;16405;53.964;13.448;2022-10-17T06:55:01;4.70;;;1.90;;
29432;SDS011;16405;53.964;13.448;2022-10-17T06:57:27;2.90;;;2.05;;
29432;SDS011;16405;53.964;13.448;2022-10-17T06:59:53;9.32;;;2.65;;
29432;SDS011;16405;53.964;13.448;2022-10-17T07:02:19;7.68;;;2.30;;
29432;SDS011;16405;53.964;13.448;2022-10-17T07:04:47;3.88;;;2.00;;
29432;SDS011;16405;53.964;13.448;2022-10-17T07:07:20;5.13;;;1.95;;
29432;SDS011;16405;53.964;13.448;2022-10-17T07:09:46;5.22;;;2.03;;
29432;SDS011;16405;53.964;13.448;2022-10-17T07:12:12;7.07;;;2.10;;
29432;SDS011;16405;53.964;13.448;2022-10-17T07:14:37;5.78;;;2.17;;
29432;SDS011;16405;53.964;13.448;2022-10-17T07:17:03;6.28;;;2.40;;
29432;SDS011;16405;53.964;13.448;2022-10-17T07:19:34;4.85;;;2.15;;
29432;SDS011;16405;53.964;13.448;2022-10-17T07:22:00;5.03;;;2.03;;
29432;SDS011;16405;53.964;13.448;2022-10-17T07:24:25;4.82;;;2.05;;
29432;SDS011;16405;53.964;13.448;2022-10-17T07:26:51;5.05;;;2.40;;
29432;SDS011;16405;53.964;13.448;2022-10-17T07:29:17;7.18;;;2.30;;
29432;SDS011;16405;53.964;13.448;2022-10-17T07:31:45;6.07;;;2.47;;
29432;SDS011;16405;53.964;13.448;2022-10-17T07:34:12;5.30;;;1.90;;
29432;SDS011;16405;53.964;13.448;2022-10-17T07:36:38;4.93;;;2.42;;
29432;SDS011;16405;53.964;13.448;2022-10-17T07:39:04;6.10;;;2.55;;
29432;SDS011;16405;53.964;13.448;2022-10-17T07:41:30;10.13;;;7.30;;
29432;SDS011;16405;53.964;13.448;2022-10-17T07:43:59;2.38;;;2.17;;
29432;SDS011;16405;53.964;13.448;2022-10-17T07:46:25;6.03;;;2.20;;
29432;SDS011;16405;53.964;13.448;2022-10-17T07:48:51;7.28;;;1.88;;
29432;SDS011;16405;53.964;13.448;2022-10-17T07:51:17;2.67;;;1.80;;
29432;SDS011;16405;53.964;13.448;2022-10-17T07:53:44;6.45;;;2.20;;
29432;SDS011;16405;53.964;13.448;2022-10-17T07:56:10;4.78;;;1.90;;
29432;SDS011;16405;53.964;13.448;2022-10-17T07:58:36;1.95;;;0.98;;
29432;SDS011;16405;53.964;13.448;2022-10-17T08:01:08;4.45;;;1.90;;
29432;SDS011;16405;53.964;13.448;2022-10-17T08:03:38;6.07;;;2.17;;
29432;SDS011;16405;53.964;13.448;2022-10-17T08:06:05;5.72;;;4.40;;
29432;SDS011;16405;53.964;13.448;2022-10-17T08:08:31;4.55;;;1.67;;
29432;SDS011;16405;53.964;13.448;2022-10-17T08:11:05;6.75;;;2.60;;
29432;SDS011;16405;53.964;13.448;2022-10-17T08:13:35;4.95;;;2.40;;
29432;SDS011;16405;53.964;13.448;2022-10-17T08:16:06;5.60;;;2.03;;
29432;SDS011;16405;53.964;13.448;2022-10-17T08:18:35;4.47;;;1.92;;
29432;SDS011;16405;53.964;13.448;2022-10-17T08:21:05;6.55;;;2.28;;
29432;SDS011;16405;53.964;13.448;2022-10-17T08:23:32;7.00;;;2.25;;
29432;SDS011;16405;53.964;13.448;2022-10-17T08:25:59;6.72;;;2.85;;
29432;SDS011;16405;53.964;13.448;2022-10-17T08:28:27;8.00;;;2.40;;
29432;SDS011;16405;53.964;13.448;2022-10-17T08:31:00;6.32;;;3.75;;
29432;SDS011;16405;53.964;13.448;2022-10-17T08:33:31;7.75;;;3.08;;
29432;SDS011;16405;53.964;13.448;2022-10-17T08:35:58;7.47;;;3.03;;
29432;SDS011;16405;53.964;13.448;2022-10-17T08:38:28;7.28;;;2.58;;
29432;SDS011;16405;53.964;13.448;2022-10-17T08:40:56;8.63;;;3.08;;
29432;SDS011;16405;53.964;13.448;2022-10-17T08:43:55;8.02;;;3.00;;
29432;SDS011;16405;53.964;13.448;2022-10-17T08:46:28;8.70;;;2.85;;
29432;SDS011;16405;53.964;13.448;2022-10-17T08:49:03;7.03;;;2.47;;
29432;SDS011;16405;53.964;13.448;2022-10-17T08:51:44;3.08;;;2.10;;
29432;SDS011;16405;53.964;13.448;2022-10-17T08:57:12;5.78;;;1.88;;
29432;SDS011;16405;53.964;13.448;2022-10-17T08:59:40;5.57;;;2.05;;
29432;SDS011;16405;53.964;13.448;2022-10-17T09:15:08;5.55;;;2.20;;
29432;SDS011;16405;53.964;13.448;2022-10-17T09:18:08;4.53;;;1.75;;
29432;SDS011;16405;53.964;13.448;2022-10-17T09:20:50;10.65;;;9.45;;
29432;SDS011;16405;53.964;13.448;2022-10-17T09:23:38;5.10;;;2.30;;
29432;SDS011;16405;53.964;13.448;2022-10-17T09:26:15;8.98;;;2.10;;
29432;SDS011;16405;53.964;13.448;2022-10-17T09:28:49;3.30;;;2.13;;
29432;SDS011;16405;53.964;13.448;2022-10-17T09:31:33;6.07;;;2.03;;
29432;SDS011;16405;53.964;13.448;2022-10-17T09:34:43;8.95;;;2.40;;
29432;SDS011;16405;53.964;13.448;2022-10-17T09:37:13;5.97;;;2.42;;
29432;SDS011;16405;53.964;13.448;2022-10-17T09:39:42;2.85;;;2.08;;
29432;SDS011;16405;53.964;13.448;2022-10-17T09:42:12;2.97;;;2.10;;
29432;SDS011;16405;53.964;13.448;2022-10-17T09:50:54;4.35;;;2.38;;
29432;SDS011;16405;53.964;13.448;2022-10-17T09:53:31;7.93;;;2.75;;
29432;SDS011;16405;53.964;13.448;2022-10-17T09:56:11;5.30;;;2.40;;
29432;SDS011;16405;53.964;13.448;2022-10-17T09:58:49;6.82;;;2.53;;
29432;SDS011;16405;53.964;13.448;2022-10-17T10:09:38;7.22;;;2.50;;
29432;SDS011;16405;53.964;13.448;2022-10-17T10:12:17;8.02;;;2.33;;
29432;SDS011;16405;53.964;13.448;2022-10-17T10:14:55;5.07;;;2.25;;
29432;SDS011;16405;53.964;13.448;2022-10-17T10:17:46;6.88;;;2.30;;
29432;SDS011;16405;53.964;13.448;2022-10-17T10:21:01;4.50;;;2.22;;
29432;SDS011;16405;53.964;13.448;2022-10-17T10:23:14;3.63;;;2.28;;
29432;SDS011;16405;53.964;13.448;2022-10-17T10:25:56;5.70;;;2.50;;
29432;SDS011;16405;53.964;13.448;2022-10-17T10:28:34;6.50;;;4.63;;
29432;SDS011;16405;53.964;13.448;2022-10-17T10:31:05;3.65;;;1.98;;
29432;SDS011;16405;53.964;13.448;2022-10-17T10:33:39;7.78;;;2.22;;
29432;SDS011;16405;53.964;13.448;2022-10-17T10:36:09;11.32;;;2.25;;
29432;SDS011;16405;53.964;13.448;2022-10-17T10:38:35;14.32;;;2.53;;
29432;SDS011;16405;53.964;13.448;2022-10-17T10:41:07;4.80;;;1.70;;
29432;SDS011;16405;53.964;13.448;2022-10-17T10:43:45;6.10;;;2.00;;
29432;SDS011;16405;53.964;13.448;2022-10-17T10:46:16;6.03;;;2.17;;
29432;SDS011;16405;53.964;13.448;2022-10-17T10:48:56;10.30;;;2.00;;
29432;SDS011;16405;53.964;13.448;2022-10-17T10:56:53;2.83;;;1.75;;
29432;SDS011;16405;53.964;13.448;2022-10-17T10:59:24;5.68;;;1.85;;
29432;SDS011;16405;53.964;13.448;2022-10-17T11:02:29;4.90;;;2.00;;
29432;SDS011;16405;53.964;13.448;2022-10-17T11:05:09;5.72;;;2.10;;
29432;SDS011;16405;53.964;13.448;2022-10-17T11:07:57;6.78;;;2.13;;
29432;SDS011;16405;53.964;13.448;2022-10-17T11:10:41;3.67;;;1.83;;
29432;SDS011;16405;53.964;13.448;2022-10-17T11:13:36;6.32;;;1.90;;
29432;SDS011;16405;53.964;13.448;2022-10-17T11:18:46;7.50;;;2.10;;
29432;SDS011;16405;53.964;13.448;2022-10-17T11:21:18;9.50;;;2.38;;
29432;SDS011;16405;53.964;13.448;2022-10-17T11:26:56;10.43;;;2.15;;
29432;SDS011;16405;53.964;13.448;2022-10-17T11:29:29;6.80;;;2.33;;
29432;SDS011;16405;53.964;13.448;2022-10-17T11:32:12;5.57;;;2.13;;
29432;SDS011;16405;53.964;13.448;2022-10-17T11:34:47;5.72;;;1.90;;
29432;SDS011;16405;53.964;13.448;2022-10-17T11:37:27;8.52;;;1.95;;
29432;SDS011;16405;53.964;13.448;2022-10-17T11:42:40;7.65;;;1.85;;
29432;SDS011;16405;53.964;13.448;2022-10-17T11:45:44;7.43;;;1.63;;
29432;SDS011;16405;53.964;13.448;2022-10-17T11:48:24;7.25;;;1.80;;
29432;SDS011;16405;53.964;13.448;2022-10-17T11:51:10;10.18;;;2.13;;
29432;SDS011;16405;53.964;13.448;2022-10-17T11:53:45;3.92;;;2.20;;
29432;SDS011;16405;53.964;13.448;2022-10-17T11:56:26;9.93;;;2.00;;
29432;SDS011;16405;53.964;13.448;2022-10-17T12:05:27;5.50;;;2.10;;
29432;SDS011;16405;53.964;13.448;2022-10-17T12:14:01;3.53;;;2.10;;
29432;SDS011;16405;53.964;13.448;2022-10-17T12:21:25;6.57;;;2.17;;
29432;SDS011;16405;53.964;13.448;2022-10-17T12:23:54;6.13;;;2.13;;
29432;SDS011;16405;53.964;13.448;2022-10-17T12:26:29;5.80;;;2.10;;
29432;SDS011;16405;53.964;13.448;2022-10-17T12:28:55;3.85;;;1.98;;
29432;SDS011;16405;53.964;13.448;2022-10-17T12:31:22;6.28;;;2.10;;
29432;SDS011;16405;53.964;13.448;2022-10-17T12:33:56;3.05;;;1.85;;
29432;SDS011;16405;53.964;13.448;2022-10-17T12:46:42;8.90;;;2.60;;
29432;SDS011;16405;53.964;13.448;2022-10-17T12:57:38;8.00;;;2.60;;
29432;SDS011;16405;53.964;13.448;2022-10-17T13:03:24;7.43;;;3.15;;
29432;SDS011;16405;53.964;13.448;2022-10-17T13:05:57;9.65;;;2.15;;
29432;SDS011;16405;53.964;13.448;2022-10-17T13:08:37;6.43;;;2.70;;
29432;SDS011;16405;53.964;13.448;2022-10-17T13:11:08;3.78;;;2.50;;
29432;SDS011;16405;53.964;13.448;2022-10-17T13:13:48;7.43;;;3.13;;
29432;SDS011;16405;53.964;13.448;2022-10-17T13:16:34;3.70;;;2.10;;
29432;SDS011;16405;53.964;13.448;2022-10-17T13:19:03;7.15;;;2.70;;
29432;SDS011;16405;53.964;13.448;2022-10-17T13:24:26;18.58;;;3.78;;
29432;SDS011;16405;53.964;13.448;2022-10-17T13:26:57;9.68;;;2.72;;
29432;SDS011;16405;53.964;13.448;2022-10-17T13:29:27;6.07;;;2.00;;
29432;SDS011;16405;53.964;13.448;2022-10-17T13:31:59;4.07;;;2.25;;
29432;SDS011;16405;53.964;13.448;2022-10-17T13:34:31;6.70;;;2.33;;
29432;SDS011;16405;53.964;13.448;2022-10-17T13:37:01;9.70;;;2.58;;
29432;SDS011;16405;53.964;13.448;2022-10-17T13:39:39;9.20;;;2.42;;
29432;SDS011;16405;53.964;13.448;2022-10-17T13:42:35;8.13;;;2.45;;
29432;SDS011;16405;53.964;13.448;2022-10-17T13:45:15;6.57;;;2.30;;
29432;SDS011;16405;53.964;13.448;2022-10-17T13:48:15;18.63;;;2.88;;
29432;SDS011;16405;53.964;13.448;2022-10-17T13:51:06;9.05;;;2.22;;
29432;SDS011;16405;53.964;13.448;2022-10-17T13:53:43;9.73;;;2.28;;
29432;SDS011;16405;53.964;13.448;2022-10-17T14:01:12;5.18;;;2.22;;
29432;SDS011;16405;53.964;13.448;2022-10-17T14:03:42;7.60;;;2.70;;
29432;SDS011;16405;53.964;13.448;2022-10-17T14:06:13;4.07;;;2.33;;
29432;SDS011;16405;53.964;13.448;2022-10-17T14:08:45;5.85;;;2.42;;
29432;SDS011;16405;53.964;13.448;2022-10-17T14:11:22;7.45;;;2.50;;
29432;SDS011;16405;53.964;13.448;2022-10-17T14:14:03;7.78;;;2.50;;
29432;SDS011;16405;53.964;13.448;2022-10-17T14:16:40;5.78;;;2.40;;
29432;SDS011;16405;53.964;13.448;2022-10-17T14:19:30;4.93;;;1.10;;
29432;SDS011;16405;53.964;13.448;2022-10-17T14:24:48;201.77;;;13.80;;
29432;SDS011;16405;53.964;13.448;2022-10-17T14:27:37;8.30;;;2.90;;
29432;SDS011;16405;53.964;13.448;2022-10-17T14:32:58;9.25;;;2.33;;
29432;SDS011;16405;53.964;13.448;2022-10-17T14:35:27;12.93;;;2.80;;
29432;SDS011;16405;53.964;13.448;2022-10-17T14:38:02;7.15;;;2.75;;
29432;SDS011;16405;53.964;13.448;2022-10-17T14:40:30;13.00;;;3.28;;
29432;SDS011;16405;53.964;13.448;2022-10-17T14:43:02;27.33;;;7.00;;
29432;SDS011;16405;53.964;13.448;2022-10-17T14:45:31;71.00;;;15.45;;
29432;SDS011;16405;53.964;13.448;2022-10-17T14:48:17;17.25;;;4.68;;
29432;SDS011;16405;53.964;13.448;2022-10-17T14:53:35;21.08;;;5.10;;
29432;SDS011;16405;53.964;13.448;2022-10-17T14:56:04;20.33;;;4.75;;
29432;SDS011;16405;53.964;13.448;2022-10-17T14:59:18;10.95;;;3.85;;
29432;SDS011;16405;53.964;13.448;2022-10-17T15:01:48;14.27;;;4.32;;
29432;SDS011;16405;53.964;13.448;2022-10-17T15:04:17;9.77;;;2.92;;
29432;SDS011;16405;53.964;13.448;2022-10-17T15:06:46;5.25;;;3.20;;
29432;SDS011;16405;53.964;13.448;2022-10-17T15:09:19;11.05;;;3.13;;
29432;SDS011;16405;53.964;13.448;2022-10-17T15:11:52;4.00;;;2.60;;
29432;SDS011;16405;53.964;13.448;2022-10-17T15:14:26;9.73;;;2.75;;
29432;SDS011;16405;53.964;13.448;2022-10-17T15:16:52;11.18;;;2.78;;
29432;SDS011;16405;53.964;13.448;2022-10-17T15:19:18;4.13;;;2.65;;
29432;SDS011;16405;53.964;13.448;2022-10-17T15:21:44;6.70;;;2.70;;
29432;SDS011;16405;53.964;13.448;2022-10-17T15:24:10;5.88;;;2.70;;
29432;SDS011;16405;53.964;13.448;2022-10-17T15:26:35;6.78;;;2.83;;
29432;SDS011;16405;53.964;13.448;2022-10-17T15:29:02;6.53;;;2.85;;
29432;SDS011;16405;53.964;13.448;2022-10-17T15:31:28;6.32;;;2.75;;
29432;SDS011;16405;53.964;13.448;2022-10-17T15:33:57;6.88;;;3.00;;
29432;SDS011;16405;53.964;13.448;2022-10-17T15:36:30;7.63;;;2.63;;
29432;SDS011;16405;53.964;13.448;2022-10-17T15:39:19;7.07;;;3.28;;
29432;SDS011;16405;53.964;13.448;2022-10-17T15:41:45;8.70;;;3.55;;
29432;SDS011;16405;53.964;13.448;2022-10-17T15:44:12;6.55;;;3.20;;
29432;SDS011;16405;53.964;13.448;2022-10-17T15:46:38;6.47;;;3.15;;
29432;SDS011;16405;53.964;13.448;2022-10-17T15:49:09;11.38;;;3.22;;
29432;SDS011;16405;53.964;13.448;2022-10-17T15:51:41;6.57;;;3.60;;
29432;SDS011;16405;53.964;13.448;2022-10-17T15:54:16;6.70;;;3.00;;
29432;SDS011;16405;53.964;13.448;2022-10-17T15:56:42;5.90;;;3.10;;
29432;SDS011;16405;53.964;13.448;2022-10-17T15:59:19;5.83;;;3.40;;
29432;SDS011;16405;53.964;13.448;2022-10-17T16:01:52;14.90;;;3.30;;
29432;SDS011;16405;53.964;13.448;2022-10-17T16:04:20;9.57;;;3.35;;
29432;SDS011;16405;53.964;13.448;2022-10-17T16:06:48;10.35;;;3.47;;
29432;SDS011;16405;53.964;13.448;2022-10-17T16:09:13;16.55;;;3.83;;
29432;SDS011;16405;53.964;13.448;2022-10-17T16:11:40;32.22;;;4.40;;
29432;SDS011;16405;53.964;13.448;2022-10-17T16:14:11;18.80;;;4.60;;
29432;SDS011;16405;53.964;13.448;2022-10-17T16:16:39;9.15;;;4.07;;
29432;SDS011;16405;53.964;13.448;2022-10-17T16:19:06;10.07;;;3.88;;
29432;SDS011;16405;53.964;13.448;2022-10-17T16:21:32;10.90;;;3.83;;
29432;SDS011;16405;53.964;13.448;2022-10-17T16:24:08;7.70;;;3.40;;
29432;SDS011;16405;53.964;13.448;2022-10-17T16:26:36;9.02;;;3.45;;
29432;SDS011;16405;53.964;13.448;2022-10-17T16:29:03;10.88;;;3.58;;
29432;SDS011;16405;53.964;13.448;2022-10-17T16:31:34;6.75;;;3.72;;
29432;SDS011;16405;53.964;13.448;2022-10-17T16:34:04;9.15;;;3.60;;
29432;SDS011;16405;53.964;13.448;2022-10-17T16:36:30;6.25;;;3.40;;
29432;SDS011;16405;53.964;13.448;2022-10-17T16:39:01;10.10;;;3.67;;
29432;SDS011;16405;53.964;13.448;2022-10-17T16:41:28;6.05;;;3.72;;
29432;SDS011;16405;53.964;13.448;2022-10-17T16:43:57;13.75;;;3.78;;
29432;SDS011;16405;53.964;13.448;2022-10-17T16:46:34;7.25;;;3.90;;
29432;SDS011;16405;53.964;13.448;2022-10-17T16:49:02;6.10;;;3.45;;
29432;SDS011;16405;53.964;13.448;2022-10-17T16:51:33;11.00;;;4.47;;
29432;SDS011;16405;53.964;13.448;2022-10-17T16:54:00;7.85;;;4.20;;
29432;SDS011;16405;53.964;13.448;2022-10-17T16:56:28;8.38;;;4.60;;
29432;SDS011;16405;53.964;13.448;2022-10-17T16:58:58;11.45;;;4.32;;
29432;SDS011;16405;53.964;13.448;2022-10-17T17:01:26;11.15;;;4.05;;
29432;SDS011;16405;53.964;13.448;2022-10-17T17:03:53;11.45;;;4.50;;
29432;SDS011;16405;53.964;13.448;2022-10-17T17:06:24;8.77;;;4.47;;
29432;SDS011;16405;53.964;13.448;2022-10-17T17:08:54;11.85;;;5.95;;
29432;SDS011;16405;53.964;13.448;2022-10-17T17:11:22;14.60;;;6.03;;
29432;SDS011;16405;53.964;13.448;2022-10-17T17:13:50;16.15;;;6.53;;